createdAt,value
2022-08-05T00:00:16.251Z,3.53
2022-08-05T00:02:50.935Z,3.40
2022-08-05T00:06:02.664Z,3.50
2022-08-05T00:08:34.181Z,3.58
2022-08-05T00:11:00.313Z,3.53
2022-08-05T00:13:39.314Z,3.50
2022-08-05T00:16:13.620Z,3.60
2022-08-05T00:18:44.535Z,3.60
2022-08-05T00:21:14.780Z,3.40
2022-08-05T00:23:45.616Z,3.65
2022-08-05T00:26:14.296Z,3.50
2022-08-05T00:28:45.744Z,3.45
2022-08-05T00:31:14.054Z,3.90
2022-08-05T00:34:56.407Z,3.30
2022-08-05T00:37:11.666Z,3.25
2022-08-05T00:39:16.780Z,3.50
2022-08-05T00:41:55.073Z,3.80
2022-08-05T00:44:30.412Z,3.80
2022-08-05T00:47:03.995Z,3.53
2022-08-05T00:49:44.657Z,3.00
2022-08-05T00:52:28.222Z,3.17
2022-08-05T00:54:56.688Z,3.00
2022-08-05T00:57:25.397Z,2.83
2022-08-05T00:59:59.497Z,3.42
2022-08-05T01:02:26.938Z,3.25
2022-08-05T01:04:54.444Z,3.40
2022-08-05T01:07:22.020Z,3.30
2022-08-05T01:09:59.696Z,3.28
2022-08-05T01:12:29.808Z,3.60
2022-08-05T01:15:07.146Z,3.55
2022-08-05T01:17:57.709Z,4.03
2022-08-05T01:20:35.531Z,3.53
2022-08-05T01:23:15.544Z,3.70
2022-08-05T01:25:53.792Z,3.42
2022-08-05T01:28:21.532Z,3.67
2022-08-05T01:30:53.784Z,3.42
2022-08-05T01:33:26.202Z,3.20
2022-08-05T01:35:57.450Z,3.50
2022-08-05T01:38:29.413Z,3.22
2022-08-05T01:41:01.926Z,4.30
2022-08-05T01:43:30.567Z,3.75
2022-08-05T01:46:07.338Z,4.38
2022-08-05T01:48:46.933Z,3.20
2022-08-05T01:51:18.867Z,3.92
2022-08-05T01:53:57.757Z,3.20
2022-08-05T01:58:14.855Z,3.72
2022-08-05T01:59:18.901Z,5.22
2022-08-05T02:01:47.690Z,3.85
2022-08-05T02:04:17.826Z,7.00
2022-08-05T02:06:45.369Z,4.25
2022-08-05T02:09:16.446Z,7.85
2022-08-05T02:11:57.305Z,6.55
2022-08-05T02:14:47.053Z,3.30
2022-08-05T02:18:32.447Z,3.72
2022-08-05T02:20:23.949Z,6.82
2022-08-05T02:22:58.208Z,16.02
2022-08-05T02:25:33.122Z,11.70
2022-08-05T02:28:02.007Z,16.73
2022-08-05T02:30:34.339Z,4.30
2022-08-05T02:33:03.205Z,13.82
2022-08-05T02:35:37.365Z,8.77
2022-08-05T02:38:05.984Z,11.60
2022-08-05T02:40:38.411Z,8.32
2022-08-05T02:43:07.537Z,14.35
2022-08-05T02:45:52.824Z,14.75
2022-08-05T02:48:29.427Z,24.15
2022-08-05T02:50:59.582Z,46.35
2022-08-05T02:53:27.751Z,21.05
2022-08-05T02:56:00.067Z,46.47
2022-08-05T02:58:28.765Z,56.10
2022-08-05T03:00:58.336Z,41.63
2022-08-05T03:03:26.945Z,6.75
2022-08-05T03:06:55.568Z,17.35
2022-08-05T03:08:52.128Z,38.88
2022-08-05T03:11:54.444Z,39.83
2022-08-05T03:14:08.632Z,51.65
2022-08-05T03:16:40.765Z,6.53
2022-08-05T03:19:17.434Z,30.33
2022-08-05T03:21:55.941Z,6.28
2022-08-05T03:24:29.679Z,4.30
2022-08-05T03:29:44.570Z,8.18
2022-08-05T03:32:14.370Z,44.13
2022-08-05T03:34:47.233Z,23.52
2022-08-05T03:37:19.348Z,6.10
2022-08-05T03:39:59.138Z,6.70
2022-08-05T03:42:32.132Z,4.50
2022-08-05T03:45:01.554Z,4.28
2022-08-05T03:47:35.168Z,14.57
2022-08-05T03:50:03.167Z,16.70
2022-08-05T03:54:58.838Z,5.75
2022-08-05T03:56:03.680Z,6.95
2022-08-05T03:58:27.197Z,20.00
2022-08-05T04:00:58.498Z,7.10
2022-08-05T04:03:29.338Z,30.70
2022-08-05T04:05:57.771Z,22.65
2022-08-05T04:08:36.048Z,5.35
2022-08-05T04:11:05.206Z,5.60
2022-08-05T04:13:49.899Z,91.40
2022-08-05T04:16:25.328Z,30.33
2022-08-05T04:19:00.314Z,22.20
2022-08-05T04:22:09.008Z,11.25
2022-08-05T04:24:18.727Z,5.72
2022-08-05T04:26:47.447Z,6.30
2022-08-05T04:29:14.874Z,5.07
2022-08-05T04:31:42.990Z,5.50
2022-08-05T04:34:31.668Z,9.95
2022-08-05T04:36:58.722Z,15.05
2022-08-05T04:39:27.618Z,17.33
2022-08-05T04:41:55.609Z,4.55
2022-08-05T04:44:30.180Z,5.13
2022-08-05T04:47:09.082Z,6.15
2022-08-05T04:49:38.415Z,4.85
2022-08-05T04:52:07.638Z,4.30
2022-08-05T04:54:35.420Z,15.85
2022-08-05T04:57:02.873Z,9.63
2022-08-05T04:59:36.834Z,28.85
2022-08-05T05:02:41.421Z,5.13
2022-08-05T05:05:01.837Z,17.45
2022-08-05T05:07:32.402Z,5.03
2022-08-05T05:10:04.440Z,12.80
2022-08-05T05:12:32.203Z,5.15
2022-08-05T05:14:59.673Z,5.32
2022-08-05T05:17:56.779Z,20.90
2022-08-05T05:20:30.568Z,20.75
2022-08-05T05:22:58.538Z,30.48
2022-08-05T05:25:40.432Z,9.20
2022-08-05T05:28:08.668Z,7.70
2022-08-05T05:30:36.974Z,4.85
2022-08-05T05:33:16.500Z,5.85
2022-08-05T05:35:45.563Z,4.70
2022-08-05T05:38:14.331Z,3.95
2022-08-05T05:40:49.489Z,4.60
2022-08-05T05:43:22.382Z,4.00
2022-08-05T05:46:12.223Z,5.43
2022-08-05T05:48:41.947Z,4.10
2022-08-05T05:51:15.767Z,4.70
2022-08-05T05:53:54.456Z,4.80
2022-08-05T05:56:33.047Z,4.30
2022-08-05T05:59:05.729Z,3.72
2022-08-05T06:01:38.915Z,4.18
2022-08-05T06:04:12.642Z,3.80
2022-08-05T06:06:47.329Z,3.50
2022-08-05T06:09:25.899Z,3.83
2022-08-05T06:12:05.248Z,4.50
2022-08-05T06:14:34.863Z,3.80
2022-08-05T06:17:22.446Z,4.00
2022-08-05T06:19:56.796Z,3.65
2022-08-05T06:22:33.806Z,4.00
2022-08-05T06:25:24.495Z,4.15
2022-08-05T06:28:09.210Z,4.80
2022-08-05T06:30:38.112Z,4.07
2022-08-05T06:33:09.732Z,4.18
2022-08-05T06:36:07.137Z,3.78
2022-08-05T06:38:35.839Z,3.80
2022-08-05T06:41:05.052Z,4.28
2022-08-05T06:43:58.072Z,3.75
2022-08-05T06:46:20.347Z,3.47
2022-08-05T06:48:58.646Z,5.13
2022-08-05T06:51:29.331Z,4.40
2022-08-05T06:53:59.097Z,3.90
2022-08-05T06:56:27.111Z,3.90
2022-08-05T06:58:55.237Z,3.70
2022-08-05T07:01:22.901Z,3.78
2022-08-05T07:03:50.570Z,3.50
2022-08-05T07:06:20.651Z,3.92
2022-08-05T07:08:51.678Z,4.50
2022-08-05T07:11:22.251Z,5.80
2022-08-05T07:14:20.780Z,4.43
2022-08-05T07:17:58.600Z,4.55
2022-08-05T07:22:36.497Z,3.78
2022-08-05T07:25:23.831Z,3.38
2022-08-05T07:27:57.993Z,3.75
2022-08-05T07:30:34.769Z,4.28
2022-08-05T07:33:09.354Z,3.25
2022-08-05T07:36:04.201Z,4.25
2022-08-05T07:38:26.464Z,3.95
2022-08-05T07:42:09.594Z,4.20
2022-08-05T07:43:50.668Z,3.50
2022-08-05T07:46:23.482Z,3.00
2022-08-05T07:49:01.679Z,4.13
2022-08-05T07:51:40.702Z,3.88
2022-08-05T07:54:18.756Z,3.55
2022-08-05T07:57:01.749Z,2.90
2022-08-05T07:59:40.183Z,2.80
2022-08-05T08:02:15.395Z,3.38
2022-08-05T08:04:45.484Z,3.50
2022-08-05T08:07:13.698Z,3.95
2022-08-05T08:09:41.656Z,3.50
2022-08-05T08:12:32.004Z,4.57
2022-08-05T08:14:56.927Z,3.58
2022-08-05T08:17:30.263Z,3.35
2022-08-05T08:20:10.437Z,4.18
2022-08-05T08:22:50.943Z,3.42
2022-08-05T08:25:34.598Z,3.83
2022-08-05T08:28:11.399Z,2.95
2022-08-05T08:30:47.932Z,3.30
2022-08-05T08:33:19.298Z,2.90
2022-08-05T08:35:53.190Z,4.25
2022-08-05T08:38:38.680Z,34.47
2022-08-05T08:41:08.671Z,7.65
2022-08-05T08:45:23.974Z,3.30
2022-08-05T08:46:28.669Z,6.40
2022-08-05T08:49:07.964Z,3.40
2022-08-05T08:52:03.670Z,3.33
2022-08-05T08:54:34.191Z,4.40
2022-08-05T08:57:06.078Z,3.20
2022-08-05T08:59:41.919Z,3.20
2022-08-05T09:02:16.607Z,3.38
2022-08-05T09:05:16.392Z,3.50
2022-08-05T09:07:39.938Z,3.17
2022-08-05T09:10:27.847Z,3.10
2022-08-05T09:13:04.692Z,3.30
2022-08-05T09:15:32.731Z,4.82
2022-08-05T09:18:07.306Z,3.53
2022-08-05T09:20:38.103Z,3.25
2022-08-05T09:23:18.501Z,2.92
2022-08-05T09:26:00.140Z,3.25
2022-08-05T09:31:22.777Z,2.92
2022-08-05T09:33:56.757Z,3.00
2022-08-05T09:36:27.725Z,3.13
2022-08-05T09:39:16.649Z,2.92
2022-08-05T09:42:03.639Z,2.70
2022-08-05T09:45:17.563Z,3.47
2022-08-05T09:47:55.171Z,3.78
2022-08-05T09:50:38.536Z,3.35
2022-08-05T09:53:22.661Z,7.72
2022-08-05T09:56:04.002Z,3.30
2022-08-05T09:58:55.954Z,3.38
2022-08-05T10:01:32.351Z,3.05
2022-08-05T10:04:10.722Z,3.58
2022-08-05T10:06:40.603Z,13.43
2022-08-05T10:09:27.330Z,4.15
2022-08-05T10:11:56.476Z,2.60
2022-08-05T10:14:30.254Z,2.78
2022-08-05T10:17:14.156Z,3.28
2022-08-05T10:20:03.920Z,2.75
2022-08-05T10:22:43.185Z,2.75
2022-08-05T10:25:18.925Z,2.97
2022-08-05T10:28:09.224Z,6.07
2022-08-05T10:31:20.331Z,3.30
2022-08-05T10:33:25.751Z,3.58
2022-08-05T10:35:59.239Z,2.83
2022-08-05T10:38:29.320Z,2.97
2022-08-05T10:41:03.907Z,4.20
2022-08-05T10:43:35.806Z,3.05
2022-08-05T10:46:06.420Z,3.40
2022-08-05T10:48:57.342Z,2.60
2022-08-05T10:51:28.521Z,3.40
2022-08-05T10:54:00.820Z,2.90
2022-08-05T10:56:29.983Z,3.00
2022-08-05T10:59:03.872Z,2.60
2022-08-05T11:01:55.180Z,2.78
2022-08-05T11:04:30.962Z,3.00
2022-08-05T11:07:04.761Z,3.25
2022-08-05T11:09:46.631Z,3.08
2022-08-05T11:12:33.295Z,3.85
2022-08-05T11:15:19.338Z,2.97
2022-08-05T11:18:00.385Z,2.70
2022-08-05T11:20:39.207Z,3.40
2022-08-05T11:23:33.167Z,3.00
2022-08-05T11:26:28.466Z,4.32
2022-08-05T11:28:58.027Z,2.67
2022-08-05T11:31:58.537Z,3.40
2022-08-05T11:34:37.266Z,2.60
2022-08-05T11:38:14.207Z,2.40
2022-08-05T11:40:00.528Z,2.60
2022-08-05T11:42:32.443Z,2.95
2022-08-05T11:45:23.317Z,3.33
2022-08-05T11:47:55.057Z,3.70
2022-08-05T11:50:23.209Z,4.57
2022-08-05T11:52:57.607Z,3.35
2022-08-05T11:55:32.105Z,3.53
2022-08-05T11:58:09.532Z,2.70
2022-08-05T12:00:41.294Z,3.50
2022-08-05T12:03:23.840Z,2.50
2022-08-05T12:06:01.763Z,2.80
2022-08-05T12:08:31.686Z,3.67
2022-08-05T12:11:05.738Z,2.90
2022-08-05T12:13:48.612Z,2.70
2022-08-05T12:16:19.520Z,2.35
2022-08-05T12:18:52.186Z,4.15
2022-08-05T12:21:43.725Z,2.63
2022-08-05T12:24:18.326Z,2.58
2022-08-05T12:26:47.579Z,4.03
2022-08-05T12:29:16.334Z,3.33
2022-08-05T12:31:53.611Z,2.47
2022-08-05T12:34:28.457Z,2.28
2022-08-05T12:36:57.317Z,3.00
2022-08-05T12:39:34.370Z,2.53
2022-08-05T12:42:09.216Z,2.60
2022-08-05T12:44:43.107Z,2.50
2022-08-05T12:47:12.680Z,2.60
2022-08-05T12:50:04.252Z,3.38
2022-08-05T12:52:33.956Z,4.10
2022-08-05T12:55:17.979Z,4.28
2022-08-05T12:58:49.459Z,2.80
2022-08-05T13:02:02.289Z,3.45
2022-08-05T13:03:32.564Z,2.75
2022-08-05T13:06:01.220Z,2.63
2022-08-05T13:08:32.605Z,2.78
2022-08-05T13:11:05.068Z,3.50
2022-08-05T13:14:05.235Z,3.10
2022-08-05T13:16:25.123Z,2.55
2022-08-05T13:18:58.649Z,3.40
2022-08-05T13:21:27.777Z,2.67
2022-08-05T13:23:55.546Z,2.80
2022-08-05T13:26:29.967Z,2.50
2022-08-05T13:28:59.280Z,3.17
2022-08-05T13:31:33.813Z,5.00
2022-08-05T13:34:21.796Z,3.55
2022-08-05T13:36:53.334Z,4.20
2022-08-05T13:40:12.793Z,2.78
2022-08-05T13:42:14.820Z,2.75
2022-08-05T13:44:46.317Z,6.85
2022-08-05T13:47:34.575Z,3.05
2022-08-05T13:50:04.775Z,2.55
2022-08-05T13:52:35.295Z,2.72
2022-08-05T13:55:07.595Z,2.42
2022-08-05T14:00:19.708Z,3.67
2022-08-05T14:02:55.203Z,3.38
2022-08-05T14:05:48.269Z,3.30
2022-08-05T14:08:20.421Z,3.08
2022-08-05T14:10:49.205Z,3.05
2022-08-05T14:13:16.684Z,2.55
2022-08-05T14:16:09.128Z,2.90
2022-08-05T14:18:31.845Z,3.20
2022-08-05T14:21:00.248Z,2.80
2022-08-05T14:23:47.100Z,2.83
2022-08-05T14:26:35.840Z,3.38
2022-08-05T14:29:04.463Z,3.38
2022-08-05T14:32:02.580Z,2.80
2022-08-05T14:34:19.736Z,3.08
2022-08-05T14:36:51.498Z,6.13
2022-08-05T14:39:23.226Z,4.80
2022-08-05T14:42:16.719Z,5.25
2022-08-05T14:44:38.959Z,4.10
2022-08-05T14:47:06.507Z,3.53
2022-08-05T14:49:59.186Z,2.97
2022-08-05T14:52:50.320Z,3.05
2022-08-05T14:55:15.375Z,3.13
2022-08-05T14:57:55.985Z,2.80
2022-08-05T15:00:27.814Z,2.60
2022-08-05T15:02:56.323Z,2.85
2022-08-05T15:05:30.214Z,2.50
2022-08-05T15:08:17.998Z,2.80
2022-08-05T15:10:59.025Z,2.78
2022-08-05T15:13:28.600Z,2.83
2022-08-05T15:16:16.670Z,2.70
2022-08-05T15:18:47.219Z,2.90
2022-08-05T15:21:14.883Z,2.70
2022-08-05T15:23:48.666Z,2.70
2022-08-05T15:26:17.612Z,3.00
2022-08-05T15:29:00.004Z,3.33
2022-08-05T15:31:34.689Z,3.53
2022-08-05T15:34:18.523Z,3.40
2022-08-05T15:36:46.998Z,3.60
2022-08-05T15:41:04.619Z,3.40
2022-08-05T15:42:02.601Z,3.42
2022-08-05T15:44:50.284Z,3.63
2022-08-05T15:47:17.932Z,3.67
2022-08-05T15:49:56.697Z,3.25
2022-08-05T15:52:52.212Z,3.20
2022-08-05T15:55:17.254Z,3.42
2022-08-05T15:57:46.082Z,4.85
2022-08-05T16:00:26.236Z,3.35
2022-08-05T16:03:05.997Z,3.88
2022-08-05T16:05:33.541Z,6.43
2022-08-05T16:08:01.762Z,5.68
2022-08-05T16:10:29.444Z,3.83
2022-08-05T16:12:58.472Z,5.30
2022-08-05T16:15:32.627Z,4.32
2022-08-05T16:18:04.225Z,3.50
2022-08-05T16:20:36.566Z,3.85
2022-08-05T16:23:04.196Z,3.13
2022-08-05T16:25:34.117Z,3.13
2022-08-05T16:28:06.571Z,3.30
2022-08-05T16:30:37.538Z,2.85
2022-08-05T16:33:05.295Z,2.65
2022-08-05T16:35:41.893Z,2.70
2022-08-05T16:38:23.760Z,3.03
2022-08-05T16:40:55.162Z,2.65
2022-08-05T16:43:24.194Z,2.40
2022-08-05T16:46:04.248Z,2.80
2022-08-05T16:48:35.965Z,2.92
2022-08-05T16:51:09.869Z,2.50
2022-08-05T16:54:02.428Z,2.72
2022-08-05T16:56:27.550Z,3.25
2022-08-05T16:58:55.098Z,3.05
2022-08-05T17:01:24.223Z,3.00
2022-08-05T17:03:52.162Z,3.05
2022-08-05T17:06:20.020Z,3.30
2022-08-05T17:08:53.165Z,3.17
2022-08-05T17:11:23.876Z,2.60
2022-08-05T17:14:00.127Z,2.88
2022-08-05T17:16:36.184Z,4.10
2022-08-05T17:19:07.878Z,3.35
2022-08-05T17:21:39.800Z,3.88
2022-08-05T17:24:19.718Z,6.10
2022-08-05T17:26:58.385Z,7.75
2022-08-05T17:29:33.869Z,5.10
2022-08-05T17:32:17.357Z,5.05
2022-08-05T17:34:49.101Z,5.45
2022-08-05T17:37:40.419Z,6.47
2022-08-05T17:40:10.206Z,5.82
2022-08-05T17:42:46.564Z,7.30
2022-08-05T17:45:21.081Z,36.42
2022-08-05T17:47:54.016Z,36.58
2022-08-05T17:50:27.700Z,36.78
2022-08-05T17:52:57.038Z,38.55
2022-08-05T17:55:34.540Z,17.05
2022-08-05T17:58:07.160Z,10.35
2022-08-05T18:00:44.286Z,8.20
2022-08-05T18:03:12.499Z,6.82
2022-08-05T18:05:55.989Z,4.80
2022-08-05T18:08:29.411Z,4.43
2022-08-05T18:10:57.772Z,4.97
2022-08-05T18:13:25.729Z,5.80
2022-08-05T18:15:53.306Z,9.18
2022-08-05T18:18:22.044Z,5.93
2022-08-05T18:20:55.038Z,5.95
2022-08-05T18:23:22.575Z,5.82
2022-08-05T18:25:57.794Z,5.53
2022-08-05T18:28:28.272Z,6.70
2022-08-05T18:30:56.116Z,5.85
2022-08-05T18:33:24.152Z,6.65
2022-08-05T18:36:03.927Z,6.30
2022-08-05T18:38:36.025Z,5.68
2022-08-05T18:41:55.982Z,7.85
2022-08-05T18:43:52.293Z,12.85
2022-08-05T18:46:20.700Z,9.27
2022-08-05T18:48:52.648Z,9.30
2022-08-05T18:52:06.707Z,8.70
2022-08-05T18:54:31.340Z,9.02
2022-08-05T18:57:00.906Z,11.30
2022-08-05T18:59:43.994Z,10.65
2022-08-05T19:02:26.919Z,9.23
2022-08-05T19:05:02.445Z,9.55
2022-08-05T19:07:46.372Z,7.50
2022-08-05T19:10:28.204Z,8.13
2022-08-05T19:12:56.996Z,7.72
2022-08-05T19:15:57.538Z,5.85
2022-08-05T19:18:22.365Z,6.85
2022-08-05T19:20:52.361Z,5.43
2022-08-05T19:24:04.324Z,6.45
2022-08-05T19:26:09.409Z,4.78
2022-08-05T19:28:42.207Z,4.70
2022-08-05T19:31:13.435Z,4.38
2022-08-05T19:33:48.147Z,5.60
2022-08-05T19:36:24.090Z,6.22
2022-08-05T19:38:52.070Z,5.30
2022-08-05T19:41:22.058Z,4.72
2022-08-05T19:44:13.859Z,3.97
2022-08-05T19:46:41.649Z,6.32
2022-08-05T19:49:16.374Z,4.55
2022-08-05T19:52:08.545Z,4.65
2022-08-05T19:54:32.981Z,4.72
2022-08-05T19:57:08.436Z,4.55
2022-08-05T20:00:00.188Z,4.97
2022-08-05T20:02:31.488Z,5.10
2022-08-05T20:04:59.800Z,6.68
2022-08-05T20:07:39.004Z,5.70
2022-08-05T20:10:16.342Z,5.47
2022-08-05T20:12:46.454Z,7.38
2022-08-05T20:15:23.364Z,4.82
2022-08-05T20:18:10.205Z,4.22
2022-08-05T20:20:52.123Z,4.30
2022-08-05T20:23:23.854Z,4.75
2022-08-05T20:26:09.081Z,4.45
2022-08-05T20:28:44.930Z,5.25
2022-08-05T20:31:13.052Z,4.05
2022-08-05T20:33:42.272Z,4.32
2022-08-05T20:36:11.196Z,4.30
2022-08-05T20:38:40.836Z,4.25
2022-08-05T20:41:23.691Z,4.15
2022-08-05T20:44:00.454Z,4.38
2022-08-05T20:46:30.445Z,4.65
2022-08-05T20:48:59.357Z,4.38
2022-08-05T20:51:27.182Z,4.90
2022-08-05T20:53:56.643Z,4.88
2022-08-05T20:56:29.836Z,4.97
2022-08-05T20:59:00.135Z,5.72
2022-08-05T21:01:42.630Z,12.30
2022-08-05T21:04:12.810Z,4.97
2022-08-05T21:06:45.030Z,5.15
2022-08-05T21:09:14.392Z,5.30
2022-08-05T21:12:07.279Z,5.50
2022-08-05T21:14:34.944Z,4.70
2022-08-05T21:17:06.436Z,5.15
2022-08-05T21:19:46.584Z,5.10
2022-08-05T21:22:21.743Z,18.13
2022-08-05T21:25:03.659Z,24.98
2022-08-05T21:27:38.928Z,6.90
2022-08-05T21:30:07.384Z,10.43
2022-08-05T21:32:36.336Z,23.25
2022-08-05T21:35:08.749Z,56.20
2022-08-05T21:37:52.768Z,64.40
2022-08-05T21:40:21.781Z,25.77
2022-08-05T21:42:49.468Z,45.05
2022-08-05T21:45:25.166Z,61.25
2022-08-05T21:48:08.160Z,58.20
2022-08-05T21:50:36.719Z,14.40
2022-08-05T21:53:16.347Z,50.42
2022-08-05T21:56:06.440Z,33.05
2022-08-05T21:58:34.515Z,47.25
2022-08-05T22:01:07.696Z,11.38
2022-08-05T22:03:51.923Z,48.92
2022-08-05T22:06:35.506Z,31.33
2022-08-05T22:09:13.829Z,7.85
2022-08-05T22:11:43.571Z,6.95
2022-08-05T22:14:34.994Z,40.40
2022-08-05T22:17:05.086Z,6.18
2022-08-05T22:20:00.079Z,5.63
2022-08-05T22:22:28.151Z,5.82
2022-08-05T22:25:18.091Z,5.97
2022-08-05T22:28:09.564Z,5.22
2022-08-05T22:30:44.131Z,5.28
2022-08-05T22:33:57.387Z,6.55
2022-08-05T22:36:14.772Z,5.35
2022-08-05T22:38:43.337Z,5.85
2022-08-05T22:41:15.048Z,21.17
2022-08-05T22:43:42.765Z,6.18
2022-08-05T22:46:13.615Z,5.30
2022-08-05T22:48:50.660Z,11.55
2022-08-05T22:51:22.908Z,12.68
2022-08-05T22:53:51.982Z,7.60
2022-08-05T22:56:30.112Z,6.63
2022-08-05T22:59:03.259Z,32.95
2022-08-05T23:02:04.553Z,44.30
2022-08-05T23:04:33.201Z,7.30
2022-08-05T23:07:00.746Z,6.45
2022-08-05T23:09:57.927Z,25.20
2022-08-05T23:12:17.966Z,6.07
2022-08-05T23:14:45.930Z,5.43
2022-08-05T23:18:01.314Z,27.88
2022-08-05T23:20:23.561Z,4.93
2022-08-05T23:22:55.962Z,31.90
2022-08-05T23:25:55.038Z,13.63
2022-08-05T23:28:15.848Z,26.70
2022-08-05T23:30:53.425Z,53.42
2022-08-05T23:34:03.190Z,40.47
2022-08-05T23:36:10.841Z,12.90
2022-08-05T23:38:41.443Z,34.70
2022-08-05T23:41:10.688Z,37.13
2022-08-05T23:44:06.448Z,37.10
2022-08-05T23:46:26.111Z,18.52
2022-08-05T23:49:00.658Z,10.85
2022-08-05T23:51:56.938Z,13.60
2022-08-05T23:54:29.897Z,9.10
2022-08-05T23:57:03.421Z,10.98
